sensor_id;sensor_type;location;lat;lon;timestamp;P1;durP1;ratioP1;P2;durP2;ratioP2
31336;SDS011;22846;42.654;23.314;2024-02-14T00:00:02;7.43;;;5.72;;
31336;SDS011;22846;42.654;23.314;2024-02-14T00:02:28;8.65;;;5.63;;
31336;SDS011;22846;42.654;23.314;2024-02-14T00:04:54;6.43;;;4.50;;
31336;SDS011;22846;42.654;23.314;2024-02-14T00:07:20;6.55;;;5.22;;
31336;SDS011;22846;42.654;23.314;2024-02-14T00:09:46;6.90;;;5.20;;
31336;SDS011;22846;42.654;23.314;2024-02-14T00:12:13;7.53;;;5.05;;
31336;SDS011;22846;42.654;23.314;2024-02-14T00:14:39;5.68;;;4.53;;
31336;SDS011;22846;42.654;23.314;2024-02-14T00:17:05;6.85;;;4.82;;
31336;SDS011;22846;42.654;23.314;2024-02-14T00:19:32;5.32;;;4.57;;
31336;SDS011;22846;42.654;23.314;2024-02-14T00:21:57;5.25;;;4.07;;
31336;SDS011;22846;42.654;23.314;2024-02-14T00:24:23;6.22;;;4.63;;
31336;SDS011;22846;42.654;23.314;2024-02-14T00:26:49;5.20;;;4.35;;
31336;SDS011;22846;42.654;23.314;2024-02-14T00:29:15;5.38;;;4.35;;
31336;SDS011;22846;42.654;23.314;2024-02-14T00:31:41;4.95;;;4.35;;
31336;SDS011;22846;42.654;23.314;2024-02-14T00:34:09;6.43;;;4.68;;
31336;SDS011;22846;42.654;23.314;2024-02-14T00:36:34;4.63;;;3.85;;
31336;SDS011;22846;42.654;23.314;2024-02-14T00:38:59;4.43;;;3.78;;
31336;SDS011;22846;42.654;23.314;2024-02-14T00:41:25;4.85;;;3.65;;
31336;SDS011;22846;42.654;23.314;2024-02-14T00:43:54;4.93;;;3.97;;
31336;SDS011;22846;42.654;23.314;2024-02-14T00:46:20;4.93;;;3.75;;
31336;SDS011;22846;42.654;23.314;2024-02-14T00:48:46;4.65;;;3.80;;
31336;SDS011;22846;42.654;23.314;2024-02-14T00:51:11;4.63;;;4.13;;
31336;SDS011;22846;42.654;23.314;2024-02-14T00:53:37;4.63;;;3.60;;
31336;SDS011;22846;42.654;23.314;2024-02-14T00:56:02;4.38;;;3.67;;
31336;SDS011;22846;42.654;23.314;2024-02-14T00:58:28;4.47;;;3.63;;
31336;SDS011;22846;42.654;23.314;2024-02-14T01:00:53;4.68;;;3.65;;
31336;SDS011;22846;42.654;23.314;2024-02-14T01:03:19;5.05;;;4.13;;
31336;SDS011;22846;42.654;23.314;2024-02-14T01:05:44;4.28;;;3.35;;
31336;SDS011;22846;42.654;23.314;2024-02-14T01:08:10;4.78;;;3.08;;
31336;SDS011;22846;42.654;23.314;2024-02-14T01:10:35;3.75;;;3.15;;
31336;SDS011;22846;42.654;23.314;2024-02-14T01:13:01;4.28;;;3.28;;
31336;SDS011;22846;42.654;23.314;2024-02-14T01:15:26;4.57;;;3.40;;
31336;SDS011;22846;42.654;23.314;2024-02-14T01:17:52;4.32;;;3.38;;
31336;SDS011;22846;42.654;23.314;2024-02-14T01:20:17;3.28;;;2.90;;
31336;SDS011;22846;42.654;23.314;2024-02-14T01:22:43;3.78;;;3.20;;
31336;SDS011;22846;42.654;23.314;2024-02-14T01:25:10;5.28;;;2.90;;
31336;SDS011;22846;42.654;23.314;2024-02-14T01:27:36;3.70;;;3.00;;
31336;SDS011;22846;42.654;23.314;2024-02-14T01:30:01;4.47;;;2.90;;
31336;SDS011;22846;42.654;23.314;2024-02-14T01:32:27;4.13;;;3.10;;
31336;SDS011;22846;42.654;23.314;2024-02-14T01:34:53;3.63;;;2.83;;
31336;SDS011;22846;42.654;23.314;2024-02-14T01:37:18;3.92;;;3.10;;
31336;SDS011;22846;42.654;23.314;2024-02-14T01:39:45;3.33;;;3.00;;
31336;SDS011;22846;42.654;23.314;2024-02-14T01:42:11;3.20;;;2.80;;
31336;SDS011;22846;42.654;23.314;2024-02-14T01:44:36;2.88;;;2.53;;
31336;SDS011;22846;42.654;23.314;2024-02-14T01:47:02;3.58;;;2.83;;
31336;SDS011;22846;42.654;23.314;2024-02-14T01:49:28;2.72;;;2.40;;
31336;SDS011;22846;42.654;23.314;2024-02-14T01:51:53;5.25;;;2.78;;
31336;SDS011;22846;42.654;23.314;2024-02-14T01:54:22;4.05;;;2.70;;
31336;SDS011;22846;42.654;23.314;2024-02-14T01:56:47;3.53;;;2.85;;
31336;SDS011;22846;42.654;23.314;2024-02-14T01:59:13;2.85;;;2.30;;
31336;SDS011;22846;42.654;23.314;2024-02-14T02:01:40;2.85;;;2.55;;
31336;SDS011;22846;42.654;23.314;2024-02-14T02:04:06;3.03;;;2.53;;
31336;SDS011;22846;42.654;23.314;2024-02-14T02:06:32;3.05;;;2.40;;
31336;SDS011;22846;42.654;23.314;2024-02-14T02:08:57;2.67;;;2.30;;
31336;SDS011;22846;42.654;23.314;2024-02-14T02:11:24;2.97;;;2.58;;
31336;SDS011;22846;42.654;23.314;2024-02-14T02:13:50;3.00;;;2.60;;
31336;SDS011;22846;42.654;23.314;2024-02-14T02:16:15;2.65;;;2.35;;
31336;SDS011;22846;42.654;23.314;2024-02-14T02:18:41;2.50;;;2.20;;
31336;SDS011;22846;42.654;23.314;2024-02-14T02:21:06;2.63;;;2.03;;
31336;SDS011;22846;42.654;23.314;2024-02-14T02:23:35;2.97;;;2.22;;
31336;SDS011;22846;42.654;23.314;2024-02-14T02:26:00;2.78;;;2.47;;
31336;SDS011;22846;42.654;23.314;2024-02-14T02:28:26;2.45;;;2.10;;
31336;SDS011;22846;42.654;23.314;2024-02-14T02:30:52;2.70;;;2.10;;
31336;SDS011;22846;42.654;23.314;2024-02-14T02:33:18;2.78;;;2.20;;
31336;SDS011;22846;42.654;23.314;2024-02-14T02:35:44;3.92;;;2.08;;
31336;SDS011;22846;42.654;23.314;2024-02-14T02:38:10;3.08;;;2.03;;
31336;SDS011;22846;42.654;23.314;2024-02-14T02:40:36;2.28;;;2.03;;
31336;SDS011;22846;42.654;23.314;2024-02-14T02:43:02;2.13;;;1.92;;
31336;SDS011;22846;42.654;23.314;2024-02-14T02:45:28;2.65;;;2.13;;
31336;SDS011;22846;42.654;23.314;2024-02-14T02:47:54;2.00;;;1.77;;
31336;SDS011;22846;42.654;23.314;2024-02-14T02:50:21;2.20;;;2.00;;
31336;SDS011;22846;42.654;23.314;2024-02-14T02:52:47;2.10;;;1.90;;
31336;SDS011;22846;42.654;23.314;2024-02-14T02:55:12;1.85;;;1.60;;
31336;SDS011;22846;42.654;23.314;2024-02-14T02:57:39;2.13;;;1.92;;
31336;SDS011;22846;42.654;23.314;2024-02-14T03:00:06;2.28;;;2.00;;
31336;SDS011;22846;42.654;23.314;2024-02-14T03:02:32;1.80;;;1.60;;
31336;SDS011;22846;42.654;23.314;2024-02-14T03:04:59;2.10;;;1.88;;
31336;SDS011;22846;42.654;23.314;2024-02-14T03:07:25;2.67;;;2.08;;
31336;SDS011;22846;42.654;23.314;2024-02-14T03:09:50;2.10;;;1.63;;
31336;SDS011;22846;42.654;23.314;2024-02-14T03:12:17;2.13;;;1.92;;
31336;SDS011;22846;42.654;23.314;2024-02-14T03:14:43;1.90;;;1.70;;
31336;SDS011;22846;42.654;23.314;2024-02-14T03:17:09;1.95;;;1.75;;
31336;SDS011;22846;42.654;23.314;2024-02-14T03:19:35;2.15;;;1.80;;
31336;SDS011;22846;42.654;23.314;2024-02-14T03:22:03;2.15;;;1.90;;
31336;SDS011;22846;42.654;23.314;2024-02-14T03:24:30;1.95;;;1.73;;
31336;SDS011;22846;42.654;23.314;2024-02-14T03:26:56;1.50;;;1.40;;
31336;SDS011;22846;42.654;23.314;2024-02-14T03:29:21;1.60;;;1.50;;
31336;SDS011;22846;42.654;23.314;2024-02-14T03:31:47;1.73;;;1.63;;
31336;SDS011;22846;42.654;23.314;2024-02-14T03:34:13;2.10;;;1.67;;
31336;SDS011;22846;42.654;23.314;2024-02-14T03:36:38;1.98;;;1.70;;
31336;SDS011;22846;42.654;23.314;2024-02-14T03:39:04;2.25;;;1.77;;
31336;SDS011;22846;42.654;23.314;2024-02-14T03:41:30;2.00;;;1.80;;
31336;SDS011;22846;42.654;23.314;2024-02-14T03:43:56;2.25;;;1.75;;
31336;SDS011;22846;42.654;23.314;2024-02-14T03:46:25;1.50;;;1.40;;
31336;SDS011;22846;42.654;23.314;2024-02-14T03:48:51;2.67;;;1.45;;
31336;SDS011;22846;42.654;23.314;2024-02-14T03:51:17;1.70;;;1.60;;
31336;SDS011;22846;42.654;23.314;2024-02-14T03:53:44;1.63;;;1.50;;
31336;SDS011;22846;42.654;23.314;2024-02-14T03:56:10;1.75;;;1.63;;
31336;SDS011;22846;42.654;23.314;2024-02-14T03:58:36;1.50;;;1.40;;
31336;SDS011;22846;42.654;23.314;2024-02-14T04:01:05;2.40;;;1.80;;
31336;SDS011;22846;42.654;23.314;2024-02-14T04:03:30;1.60;;;1.40;;
31336;SDS011;22846;42.654;23.314;2024-02-14T04:05:56;1.50;;;1.38;;
31336;SDS011;22846;42.654;23.314;2024-02-14T04:08:22;1.73;;;1.45;;
31336;SDS011;22846;42.654;23.314;2024-02-14T04:10:47;1.50;;;1.40;;
31336;SDS011;22846;42.654;23.314;2024-02-14T04:13:18;1.67;;;1.58;;
31336;SDS011;22846;42.654;23.314;2024-02-14T04:15:44;2.10;;;1.80;;
31336;SDS011;22846;42.654;23.314;2024-02-14T04:18:09;1.42;;;1.30;;
31336;SDS011;22846;42.654;23.314;2024-02-14T04:20:35;1.50;;;1.40;;
31336;SDS011;22846;42.654;23.314;2024-02-14T04:23:00;1.50;;;1.40;;
31336;SDS011;22846;42.654;23.314;2024-02-14T04:25:26;1.65;;;1.45;;
31336;SDS011;22846;42.654;23.314;2024-02-14T04:27:51;1.55;;;1.38;;
31336;SDS011;22846;42.654;23.314;2024-02-14T04:30:16;1.38;;;1.27;;
31336;SDS011;22846;42.654;23.314;2024-02-14T04:32:42;1.48;;;1.30;;
31336;SDS011;22846;42.654;23.314;2024-02-14T04:35:08;1.80;;;1.42;;
31336;SDS011;22846;42.654;23.314;2024-02-14T04:37:34;1.63;;;1.33;;
31336;SDS011;22846;42.654;23.314;2024-02-14T04:39:59;1.60;;;1.50;;
31336;SDS011;22846;42.654;23.314;2024-02-14T04:42:25;1.30;;;1.20;;
31336;SDS011;22846;42.654;23.314;2024-02-14T04:44:50;1.83;;;1.40;;
31336;SDS011;22846;42.654;23.314;2024-02-14T04:47:16;1.63;;;1.27;;
31336;SDS011;22846;42.654;23.314;2024-02-14T04:49:41;1.90;;;1.70;;
31336;SDS011;22846;42.654;23.314;2024-02-14T04:52:07;17.90;;;2.15;;
31336;SDS011;22846;42.654;23.314;2024-02-14T04:54:33;1.35;;;1.25;;
31336;SDS011;22846;42.654;23.314;2024-02-14T04:56:58;1.58;;;1.33;;
31336;SDS011;22846;42.654;23.314;2024-02-14T04:59:24;2.10;;;1.50;;
31336;SDS011;22846;42.654;23.314;2024-02-14T05:01:49;1.73;;;1.45;;
31336;SDS011;22846;42.654;23.314;2024-02-14T05:04:16;1.20;;;1.10;;
31336;SDS011;22846;42.654;23.314;2024-02-14T05:06:42;2.55;;;1.35;;
31336;SDS011;22846;42.654;23.314;2024-02-14T05:09:07;4.40;;;1.40;;
31336;SDS011;22846;42.654;23.314;2024-02-14T05:11:35;2.42;;;1.25;;
31336;SDS011;22846;42.654;23.314;2024-02-14T05:14:01;2.95;;;1.20;;
31336;SDS011;22846;42.654;23.314;2024-02-14T05:16:27;1.92;;;1.20;;
31336;SDS011;22846;42.654;23.314;2024-02-14T05:18:52;3.45;;;1.80;;
31336;SDS011;22846;42.654;23.314;2024-02-14T05:21:19;4.35;;;1.38;;
31336;SDS011;22846;42.654;23.314;2024-02-14T05:23:45;2.20;;;1.35;;
31336;SDS011;22846;42.654;23.314;2024-02-14T05:26:10;3.28;;;1.27;;
31336;SDS011;22846;42.654;23.314;2024-02-14T05:28:36;7.45;;;1.45;;
31336;SDS011;22846;42.654;23.314;2024-02-14T05:31:01;6.22;;;1.63;;
31336;SDS011;22846;42.654;23.314;2024-02-14T05:33:28;10.32;;;1.95;;
31336;SDS011;22846;42.654;23.314;2024-02-14T05:35:53;12.32;;;2.28;;
31336;SDS011;22846;42.654;23.314;2024-02-14T05:38:19;8.32;;;2.20;;
31336;SDS011;22846;42.654;23.314;2024-02-14T05:40:45;10.30;;;2.42;;
31336;SDS011;22846;42.654;23.314;2024-02-14T05:43:11;5.72;;;2.20;;
31336;SDS011;22846;42.654;23.314;2024-02-14T05:45:37;5.65;;;1.88;;
31336;SDS011;22846;42.654;23.314;2024-02-14T05:48:03;7.90;;;2.00;;
31336;SDS011;22846;42.654;23.314;2024-02-14T05:50:28;3.38;;;1.95;;
31336;SDS011;22846;42.654;23.314;2024-02-14T05:52:54;8.57;;;1.88;;
31336;SDS011;22846;42.654;23.314;2024-02-14T05:55:19;6.78;;;2.22;;
31336;SDS011;22846;42.654;23.314;2024-02-14T05:57:45;9.13;;;2.10;;
31336;SDS011;22846;42.654;23.314;2024-02-14T06:00:10;5.07;;;2.00;;
31336;SDS011;22846;42.654;23.314;2024-02-14T06:02:37;4.65;;;1.90;;
31336;SDS011;22846;42.654;23.314;2024-02-14T06:05:05;2.83;;;1.80;;
31336;SDS011;22846;42.654;23.314;2024-02-14T06:07:34;6.38;;;2.13;;
31336;SDS011;22846;42.654;23.314;2024-02-14T06:10:01;6.63;;;1.95;;
31336;SDS011;22846;42.654;23.314;2024-02-14T06:12:26;4.97;;;2.10;;
31336;SDS011;22846;42.654;23.314;2024-02-14T06:14:51;4.43;;;1.60;;
31336;SDS011;22846;42.654;23.314;2024-02-14T06:17:17;3.42;;;1.80;;
31336;SDS011;22846;42.654;23.314;2024-02-14T06:19:42;4.18;;;2.08;;
31336;SDS011;22846;42.654;23.314;2024-02-14T06:22:07;5.07;;;1.85;;
31336;SDS011;22846;42.654;23.314;2024-02-14T06:24:33;7.03;;;2.80;;
31336;SDS011;22846;42.654;23.314;2024-02-14T06:26:58;4.38;;;1.70;;
31336;SDS011;22846;42.654;23.314;2024-02-14T06:29:24;2.53;;;1.70;;
31336;SDS011;22846;42.654;23.314;2024-02-14T06:31:49;3.60;;;1.80;;
31336;SDS011;22846;42.654;23.314;2024-02-14T06:34:15;4.32;;;1.65;;
31336;SDS011;22846;42.654;23.314;2024-02-14T06:36:41;3.25;;;1.88;;
31336;SDS011;22846;42.654;23.314;2024-02-14T06:39:06;3.83;;;1.92;;
31336;SDS011;22846;42.654;23.314;2024-02-14T06:41:32;3.42;;;1.67;;
31336;SDS011;22846;42.654;23.314;2024-02-14T06:43:57;3.28;;;1.90;;
31336;SDS011;22846;42.654;23.314;2024-02-14T06:46:23;2.33;;;1.50;;
31336;SDS011;22846;42.654;23.314;2024-02-14T06:48:48;2.33;;;1.58;;
31336;SDS011;22846;42.654;23.314;2024-02-14T06:51:14;2.85;;;1.73;;
31336;SDS011;22846;42.654;23.314;2024-02-14T06:53:39;3.13;;;1.67;;
31336;SDS011;22846;42.654;23.314;2024-02-14T06:56:05;3.42;;;1.63;;
31336;SDS011;22846;42.654;23.314;2024-02-14T06:58:30;3.28;;;1.80;;
31336;SDS011;22846;42.654;23.314;2024-02-14T07:00:56;2.10;;;1.60;;
31336;SDS011;22846;42.654;23.314;2024-02-14T07:03:21;1.65;;;1.52;;
31336;SDS011;22846;42.654;23.314;2024-02-14T07:05:47;2.38;;;1.45;;
31336;SDS011;22846;42.654;23.314;2024-02-14T07:08:12;3.80;;;1.70;;
31336;SDS011;22846;42.654;23.314;2024-02-14T07:10:37;3.75;;;1.60;;
31336;SDS011;22846;42.654;23.314;2024-02-14T07:13:03;2.00;;;1.60;;
31336;SDS011;22846;42.654;23.314;2024-02-14T07:15:28;2.65;;;1.77;;
31336;SDS011;22846;42.654;23.314;2024-02-14T07:17:54;2.17;;;1.55;;
31336;SDS011;22846;42.654;23.314;2024-02-14T07:20:21;2.10;;;1.42;;
31336;SDS011;22846;42.654;23.314;2024-02-14T07:22:46;2.80;;;1.58;;
31336;SDS011;22846;42.654;23.314;2024-02-14T07:25:18;2.80;;;1.70;;
31336;SDS011;22846;42.654;23.314;2024-02-14T07:27:43;1.60;;;1.50;;
31336;SDS011;22846;42.654;23.314;2024-02-14T07:30:11;1.92;;;1.40;;
31336;SDS011;22846;42.654;23.314;2024-02-14T07:32:38;3.17;;;1.67;;
31336;SDS011;22846;42.654;23.314;2024-02-14T07:35:04;3.72;;;1.67;;
31336;SDS011;22846;42.654;23.314;2024-02-14T07:37:30;2.03;;;1.50;;
31336;SDS011;22846;42.654;23.314;2024-02-14T07:39:55;1.75;;;1.63;;
31336;SDS011;22846;42.654;23.314;2024-02-14T07:42:21;2.53;;;1.70;;
31336;SDS011;22846;42.654;23.314;2024-02-14T07:44:46;2.67;;;1.70;;
31336;SDS011;22846;42.654;23.314;2024-02-14T07:47:12;2.08;;;1.60;;
31336;SDS011;22846;42.654;23.314;2024-02-14T07:49:38;2.50;;;1.50;;
31336;SDS011;22846;42.654;23.314;2024-02-14T07:52:04;3.22;;;1.60;;
31336;SDS011;22846;42.654;23.314;2024-02-14T07:54:30;1.63;;;1.52;;
31336;SDS011;22846;42.654;23.314;2024-02-14T07:56:56;4.50;;;1.73;;
31336;SDS011;22846;42.654;23.314;2024-02-14T07:59:21;2.15;;;1.70;;
31336;SDS011;22846;42.654;23.314;2024-02-14T08:01:46;3.15;;;1.63;;
31336;SDS011;22846;42.654;23.314;2024-02-14T08:04:12;2.45;;;1.50;;
31336;SDS011;22846;42.654;23.314;2024-02-14T08:06:37;1.90;;;1.70;;
31336;SDS011;22846;42.654;23.314;2024-02-14T08:09:02;2.10;;;1.88;;
31336;SDS011;22846;42.654;23.314;2024-02-14T08:11:31;1.95;;;1.60;;
31336;SDS011;22846;42.654;23.314;2024-02-14T08:13:57;2.05;;;1.60;;
31336;SDS011;22846;42.654;23.314;2024-02-14T08:16:23;2.28;;;1.80;;
31336;SDS011;22846;42.654;23.314;2024-02-14T08:18:49;1.77;;;1.45;;
31336;SDS011;22846;42.654;23.314;2024-02-14T08:21:15;1.80;;;1.58;;
31336;SDS011;22846;42.654;23.314;2024-02-14T08:23:41;2.42;;;1.80;;
31336;SDS011;22846;42.654;23.314;2024-02-14T08:26:07;3.08;;;2.03;;
31336;SDS011;22846;42.654;23.314;2024-02-14T08:28:38;3.15;;;1.65;;
31336;SDS011;22846;42.654;23.314;2024-02-14T08:31:09;1.55;;;1.45;;
31336;SDS011;22846;42.654;23.314;2024-02-14T08:33:35;2.22;;;1.70;;
31336;SDS011;22846;42.654;23.314;2024-02-14T08:36:02;2.00;;;1.70;;
31336;SDS011;22846;42.654;23.314;2024-02-14T08:38:28;3.83;;;1.60;;
31336;SDS011;22846;42.654;23.314;2024-02-14T08:40:53;1.90;;;1.52;;
31336;SDS011;22846;42.654;23.314;2024-02-14T08:43:19;1.60;;;1.50;;
31336;SDS011;22846;42.654;23.314;2024-02-14T08:45:44;2.35;;;1.58;;
31336;SDS011;22846;42.654;23.314;2024-02-14T08:48:09;2.40;;;1.58;;
31336;SDS011;22846;42.654;23.314;2024-02-14T08:50:35;1.73;;;1.55;;
31336;SDS011;22846;42.654;23.314;2024-02-14T08:53:00;2.75;;;1.65;;
31336;SDS011;22846;42.654;23.314;2024-02-14T08:55:26;1.85;;;1.40;;
31336;SDS011;22846;42.654;23.314;2024-02-14T08:57:51;1.42;;;1.30;;
31336;SDS011;22846;42.654;23.314;2024-02-14T09:00:16;2.35;;;1.48;;
31336;SDS011;22846;42.654;23.314;2024-02-14T09:02:45;1.65;;;1.50;;
31336;SDS011;22846;42.654;23.314;2024-02-14T09:05:14;2.63;;;1.20;;
31336;SDS011;22846;42.654;23.314;2024-02-14T09:07:41;1.80;;;1.50;;
31336;SDS011;22846;42.654;23.314;2024-02-14T09:10:06;1.77;;;1.55;;
31336;SDS011;22846;42.654;23.314;2024-02-14T09:12:32;1.52;;;1.35;;
31336;SDS011;22846;42.654;23.314;2024-02-14T09:14:58;2.45;;;1.63;;
31336;SDS011;22846;42.654;23.314;2024-02-14T09:17:24;2.13;;;1.55;;
31336;SDS011;22846;42.654;23.314;2024-02-14T09:19:49;1.45;;;1.35;;
31336;SDS011;22846;42.654;23.314;2024-02-14T09:22:14;1.85;;;1.65;;
31336;SDS011;22846;42.654;23.314;2024-02-14T09:24:46;1.60;;;1.50;;
31336;SDS011;22846;42.654;23.314;2024-02-14T09:27:12;2.05;;;1.30;;
31336;SDS011;22846;42.654;23.314;2024-02-14T09:29:37;1.90;;;1.60;;
31336;SDS011;22846;42.654;23.314;2024-02-14T09:32:03;2.05;;;1.38;;
31336;SDS011;22846;42.654;23.314;2024-02-14T09:34:29;2.78;;;1.50;;
31336;SDS011;22846;42.654;23.314;2024-02-14T09:36:54;2.72;;;1.67;;
31336;SDS011;22846;42.654;23.314;2024-02-14T09:39:21;1.50;;;1.33;;
31336;SDS011;22846;42.654;23.314;2024-02-14T09:41:51;1.50;;;1.40;;
31336;SDS011;22846;42.654;23.314;2024-02-14T09:44:20;2.10;;;1.38;;
31336;SDS011;22846;42.654;23.314;2024-02-14T09:46:46;2.22;;;1.55;;
31336;SDS011;22846;42.654;23.314;2024-02-14T09:49:13;1.63;;;1.52;;
31336;SDS011;22846;42.654;23.314;2024-02-14T09:51:40;1.60;;;1.48;;
31336;SDS011;22846;42.654;23.314;2024-02-14T09:54:06;1.88;;;1.77;;
31336;SDS011;22846;42.654;23.314;2024-02-14T09:56:32;1.90;;;1.40;;
31336;SDS011;22846;42.654;23.314;2024-02-14T09:58:58;1.50;;;1.40;;
31336;SDS011;22846;42.654;23.314;2024-02-14T10:01:25;1.90;;;1.65;;
31336;SDS011;22846;42.654;23.314;2024-02-14T10:03:52;1.40;;;1.30;;
31336;SDS011;22846;42.654;23.314;2024-02-14T10:06:18;1.42;;;1.33;;
31336;SDS011;22846;42.654;23.314;2024-02-14T10:08:47;2.03;;;1.40;;
31336;SDS011;22846;42.654;23.314;2024-02-14T10:11:16;1.60;;;1.38;;
31336;SDS011;22846;42.654;23.314;2024-02-14T10:13:46;1.80;;;1.30;;
31336;SDS011;22846;42.654;23.314;2024-02-14T10:16:13;1.42;;;1.33;;
31336;SDS011;22846;42.654;23.314;2024-02-14T10:18:39;2.15;;;1.60;;
31336;SDS011;22846;42.654;23.314;2024-02-14T10:21:04;1.52;;;1.42;;
31336;SDS011;22846;42.654;23.314;2024-02-14T10:23:30;1.88;;;1.50;;
31336;SDS011;22846;42.654;23.314;2024-02-14T10:25:56;1.80;;;1.60;;
31336;SDS011;22846;42.654;23.314;2024-02-14T10:28:23;1.50;;;1.40;;
31336;SDS011;22846;42.654;23.314;2024-02-14T10:30:49;1.73;;;1.60;;
31336;SDS011;22846;42.654;23.314;2024-02-14T10:33:15;2.40;;;1.50;;
31336;SDS011;22846;42.654;23.314;2024-02-14T10:35:41;2.10;;;1.30;;
31336;SDS011;22846;42.654;23.314;2024-02-14T10:38:07;1.75;;;1.38;;
31336;SDS011;22846;42.654;23.314;2024-02-14T10:40:35;2.22;;;1.80;;
31336;SDS011;22846;42.654;23.314;2024-02-14T10:43:03;2.25;;;1.75;;
31336;SDS011;22846;42.654;23.314;2024-02-14T10:45:32;1.88;;;1.42;;
31336;SDS011;22846;42.654;23.314;2024-02-14T10:47:57;1.95;;;1.58;;
31336;SDS011;22846;42.654;23.314;2024-02-14T10:50:25;1.75;;;1.55;;
31336;SDS011;22846;42.654;23.314;2024-02-14T10:52:53;2.53;;;2.00;;
31336;SDS011;22846;42.654;23.314;2024-02-14T10:55:22;1.85;;;1.60;;
31336;SDS011;22846;42.654;23.314;2024-02-14T10:57:51;2.35;;;1.60;;
31336;SDS011;22846;42.654;23.314;2024-02-14T11:00:19;2.50;;;1.77;;
31336;SDS011;22846;42.654;23.314;2024-02-14T11:02:45;3.33;;;1.70;;
31336;SDS011;22846;42.654;23.314;2024-02-14T11:05:12;2.20;;;1.73;;
31336;SDS011;22846;42.654;23.314;2024-02-14T11:07:44;2.78;;;2.05;;
31336;SDS011;22846;42.654;23.314;2024-02-14T11:10:15;3.40;;;2.10;;
31336;SDS011;22846;42.654;23.314;2024-02-14T11:12:42;4.50;;;2.30;;
31336;SDS011;22846;42.654;23.314;2024-02-14T11:15:11;3.45;;;2.15;;
31336;SDS011;22846;42.654;23.314;2024-02-14T11:17:47;2.78;;;2.10;;
31336;SDS011;22846;42.654;23.314;2024-02-14T11:20:19;3.20;;;2.08;;
31336;SDS011;22846;42.654;23.314;2024-02-14T11:22:56;3.53;;;2.75;;
31336;SDS011;22846;42.654;23.314;2024-02-14T11:25:27;3.45;;;2.38;;
31336;SDS011;22846;42.654;23.314;2024-02-14T11:27:55;4.07;;;2.67;;
31336;SDS011;22846;42.654;23.314;2024-02-14T11:30:30;3.97;;;2.45;;
31336;SDS011;22846;42.654;23.314;2024-02-14T11:35:49;4.30;;;2.70;;
31336;SDS011;22846;42.654;23.314;2024-02-14T11:38:16;5.15;;;2.65;;
31336;SDS011;22846;42.654;23.314;2024-02-14T11:40:42;3.63;;;2.58;;
31336;SDS011;22846;42.654;23.314;2024-02-14T11:43:12;5.55;;;2.80;;
31336;SDS011;22846;42.654;23.314;2024-02-14T11:45:39;4.38;;;2.50;;
31336;SDS011;22846;42.654;23.314;2024-02-14T11:48:07;5.07;;;2.75;;
31336;SDS011;22846;42.654;23.314;2024-02-14T11:50:38;3.78;;;2.72;;
31336;SDS011;22846;42.654;23.314;2024-02-14T11:53:05;3.95;;;2.60;;
31336;SDS011;22846;42.654;23.314;2024-02-14T11:55:32;4.25;;;2.90;;
31336;SDS011;22846;42.654;23.314;2024-02-14T11:57:59;4.05;;;2.40;;
31336;SDS011;22846;42.654;23.314;2024-02-14T12:00:24;4.00;;;3.22;;
31336;SDS011;22846;42.654;23.314;2024-02-14T12:02:51;3.83;;;2.88;;
31336;SDS011;22846;42.654;23.314;2024-02-14T12:05:17;4.43;;;2.97;;
31336;SDS011;22846;42.654;23.314;2024-02-14T12:07:44;4.45;;;2.83;;
31336;SDS011;22846;42.654;23.314;2024-02-14T12:10:09;4.85;;;3.00;;
31336;SDS011;22846;42.654;23.314;2024-02-14T12:12:37;4.50;;;3.10;;
31336;SDS011;22846;42.654;23.314;2024-02-14T12:15:03;4.18;;;2.65;;
31336;SDS011;22846;42.654;23.314;2024-02-14T12:17:30;5.00;;;3.25;;
31336;SDS011;22846;42.654;23.314;2024-02-14T12:20:09;6.60;;;3.10;;
31336;SDS011;22846;42.654;23.314;2024-02-14T12:22:36;6.07;;;3.47;;
31336;SDS011;22846;42.654;23.314;2024-02-14T12:25:02;5.03;;;3.13;;
31336;SDS011;22846;42.654;23.314;2024-02-14T12:27:32;4.57;;;2.67;;
31336;SDS011;22846;42.654;23.314;2024-02-14T12:29:59;4.35;;;3.17;;
31336;SDS011;22846;42.654;23.314;2024-02-14T12:32:27;4.00;;;2.60;;
31336;SDS011;22846;42.654;23.314;2024-02-14T12:34:55;4.57;;;2.90;;
31336;SDS011;22846;42.654;23.314;2024-02-14T12:37:21;3.80;;;2.70;;
31336;SDS011;22846;42.654;23.314;2024-02-14T12:39:46;3.72;;;2.78;;
31336;SDS011;22846;42.654;23.314;2024-02-14T12:42:12;5.40;;;3.13;;
31336;SDS011;22846;42.654;23.314;2024-02-14T12:44:37;3.90;;;2.45;;
31336;SDS011;22846;42.654;23.314;2024-02-14T12:47:03;5.72;;;2.60;;
31336;SDS011;22846;42.654;23.314;2024-02-14T12:49:28;4.32;;;2.67;;
31336;SDS011;22846;42.654;23.314;2024-02-14T12:51:54;5.43;;;2.90;;
31336;SDS011;22846;42.654;23.314;2024-02-14T12:54:22;4.40;;;2.55;;
31336;SDS011;22846;42.654;23.314;2024-02-14T12:56:48;4.35;;;2.75;;
31336;SDS011;22846;42.654;23.314;2024-02-14T12:59:14;6.13;;;3.47;;
31336;SDS011;22846;42.654;23.314;2024-02-14T13:01:43;4.53;;;3.05;;
31336;SDS011;22846;42.654;23.314;2024-02-14T13:04:08;3.05;;;2.20;;
31336;SDS011;22846;42.654;23.314;2024-02-14T13:06:34;3.92;;;2.58;;
31336;SDS011;22846;42.654;23.314;2024-02-14T13:09:01;4.32;;;2.90;;
31336;SDS011;22846;42.654;23.314;2024-02-14T13:11:27;4.15;;;2.80;;
31336;SDS011;22846;42.654;23.314;2024-02-14T13:13:53;3.92;;;2.75;;
31336;SDS011;22846;42.654;23.314;2024-02-14T13:16:19;4.72;;;3.10;;
31336;SDS011;22846;42.654;23.314;2024-02-14T13:18:44;5.75;;;3.28;;
31336;SDS011;22846;42.654;23.314;2024-02-14T13:21:10;5.25;;;2.90;;
31336;SDS011;22846;42.654;23.314;2024-02-14T13:23:35;4.38;;;2.70;;
31336;SDS011;22846;42.654;23.314;2024-02-14T13:26:00;4.28;;;2.58;;
31336;SDS011;22846;42.654;23.314;2024-02-14T13:28:28;4.10;;;2.33;;
31336;SDS011;22846;42.654;23.314;2024-02-14T13:30:54;5.05;;;2.60;;
31336;SDS011;22846;42.654;23.314;2024-02-14T13:33:19;3.15;;;2.42;;
31336;SDS011;22846;42.654;23.314;2024-02-14T13:35:45;4.68;;;3.00;;
31336;SDS011;22846;42.654;23.314;2024-02-14T13:38:10;3.95;;;2.38;;
31336;SDS011;22846;42.654;23.314;2024-02-14T13:40:36;4.10;;;2.53;;
31336;SDS011;22846;42.654;23.314;2024-02-14T13:43:01;4.22;;;2.55;;
31336;SDS011;22846;42.654;23.314;2024-02-14T13:45:30;4.38;;;2.97;;
31336;SDS011;22846;42.654;23.314;2024-02-14T13:48:05;3.90;;;2.30;;
31336;SDS011;22846;42.654;23.314;2024-02-14T13:50:32;5.43;;;2.80;;
31336;SDS011;22846;42.654;23.314;2024-02-14T13:52:58;3.90;;;2.60;;
31336;SDS011;22846;42.654;23.314;2024-02-14T13:55:23;4.72;;;2.60;;
31336;SDS011;22846;42.654;23.314;2024-02-14T13:57:50;4.50;;;2.55;;
31336;SDS011;22846;42.654;23.314;2024-02-14T14:00:16;3.83;;;2.78;;
31336;SDS011;22846;42.654;23.314;2024-02-14T14:02:41;3.13;;;2.50;;
31336;SDS011;22846;42.654;23.314;2024-02-14T14:05:08;3.92;;;2.50;;
31336;SDS011;22846;42.654;23.314;2024-02-14T14:07:40;2.60;;;2.10;;
31336;SDS011;22846;42.654;23.314;2024-02-14T14:10:06;3.40;;;2.20;;
31336;SDS011;22846;42.654;23.314;2024-02-14T14:12:33;4.25;;;2.33;;
31336;SDS011;22846;42.654;23.314;2024-02-14T14:14:58;2.80;;;2.10;;
31336;SDS011;22846;42.654;23.314;2024-02-14T14:17:24;3.28;;;2.42;;
31336;SDS011;22846;42.654;23.314;2024-02-14T14:19:49;2.72;;;2.10;;
31336;SDS011;22846;42.654;23.314;2024-02-14T14:22:15;2.83;;;2.10;;
31336;SDS011;22846;42.654;23.314;2024-02-14T14:24:41;3.85;;;1.95;;
31336;SDS011;22846;42.654;23.314;2024-02-14T14:27:06;3.35;;;2.10;;
31336;SDS011;22846;42.654;23.314;2024-02-14T14:29:42;2.42;;;1.80;;